sensor_id;sensor_type;location;lat;lon;timestamp;P1;durP1;ratioP1;P2;durP2;ratioP2
789;SDS011;378;48.844;9.156;2023-02-01T00:01:05;4.68;;;2.47;;
789;SDS011;378;48.844;9.156;2023-02-01T00:03:32;3.40;;;2.22;;
789;SDS011;378;48.844;9.156;2023-02-01T00:05:59;5.63;;;2.50;;
789;SDS011;378;48.844;9.156;2023-02-01T00:08:27;4.82;;;2.42;;
789;SDS011;378;48.844;9.156;2023-02-01T00:10:57;4.70;;;2.40;;
789;SDS011;378;48.844;9.156;2023-02-01T00:13:30;3.28;;;2.30;;
789;SDS011;378;48.844;9.156;2023-02-01T00:16:04;4.22;;;2.38;;
789;SDS011;378;48.844;9.156;2023-02-01T00:18:31;4.15;;;2.30;;
789;SDS011;378;48.844;9.156;2023-02-01T00:20:59;3.05;;;2.25;;
789;SDS011;378;48.844;9.156;2023-02-01T00:23:25;2.95;;;1.83;;
789;SDS011;378;48.844;9.156;2023-02-01T00:25:52;2.55;;;1.90;;
789;SDS011;378;48.844;9.156;2023-02-01T00:28:19;1.95;;;1.55;;
789;SDS011;378;48.844;9.156;2023-02-01T00:30:54;4.88;;;2.17;;
789;SDS011;378;48.844;9.156;2023-02-01T00:33:22;4.28;;;2.08;;
789;SDS011;378;48.844;9.156;2023-02-01T00:35:49;3.30;;;2.10;;
789;SDS011;378;48.844;9.156;2023-02-01T00:38:16;2.88;;;2.05;;
789;SDS011;378;48.844;9.156;2023-02-01T00:40:43;3.95;;;2.40;;
789;SDS011;378;48.844;9.156;2023-02-01T00:43:10;2.95;;;2.13;;
789;SDS011;378;48.844;9.156;2023-02-01T00:45:36;4.90;;;2.10;;
789;SDS011;378;48.844;9.156;2023-02-01T00:48:05;3.50;;;2.30;;
789;SDS011;378;48.844;9.156;2023-02-01T00:50:32;2.53;;;2.10;;
789;SDS011;378;48.844;9.156;2023-02-01T00:53:01;3.10;;;2.25;;
789;SDS011;378;48.844;9.156;2023-02-01T00:55:28;3.70;;;2.15;;
789;SDS011;378;48.844;9.156;2023-02-01T00:57:55;3.00;;;1.95;;
789;SDS011;378;48.844;9.156;2023-02-01T01:00:21;6.00;;;2.13;;
789;SDS011;378;48.844;9.156;2023-02-01T01:02:48;3.03;;;2.00;;
789;SDS011;378;48.844;9.156;2023-02-01T01:05:17;2.65;;;1.80;;
789;SDS011;378;48.844;9.156;2023-02-01T01:07:43;2.97;;;1.90;;
789;SDS011;378;48.844;9.156;2023-02-01T01:10:10;2.83;;;2.13;;
789;SDS011;378;48.844;9.156;2023-02-01T01:12:37;2.63;;;1.90;;
789;SDS011;378;48.844;9.156;2023-02-01T01:15:04;2.23;;;1.93;;
789;SDS011;378;48.844;9.156;2023-02-01T01:17:32;2.15;;;1.55;;
789;SDS011;378;48.844;9.156;2023-02-01T01:19:59;2.45;;;1.90;;
789;SDS011;378;48.844;9.156;2023-02-01T01:22:27;2.85;;;1.75;;
789;SDS011;378;48.844;9.156;2023-02-01T01:24:54;3.45;;;1.88;;
789;SDS011;378;48.844;9.156;2023-02-01T01:27:21;2.15;;;1.60;;
789;SDS011;378;48.844;9.156;2023-02-01T01:29:49;2.42;;;1.83;;
789;SDS011;378;48.844;9.156;2023-02-01T01:32:16;3.72;;;1.88;;
789;SDS011;378;48.844;9.156;2023-02-01T01:34:42;2.13;;;1.70;;
789;SDS011;378;48.844;9.156;2023-02-01T01:37:09;3.70;;;1.60;;
789;SDS011;378;48.844;9.156;2023-02-01T01:39:37;3.95;;;1.80;;
789;SDS011;378;48.844;9.156;2023-02-01T01:42:04;2.87;;;1.43;;
789;SDS011;378;48.844;9.156;2023-02-01T01:47:22;2.85;;;1.50;;
789;SDS011;378;48.844;9.156;2023-02-01T01:49:50;2.40;;;1.65;;
789;SDS011;378;48.844;9.156;2023-02-01T01:52:17;2.42;;;1.60;;
789;SDS011;378;48.844;9.156;2023-02-01T01:54:47;2.72;;;1.73;;
789;SDS011;378;48.844;9.156;2023-02-01T01:57:16;1.30;;;1.20;;
789;SDS011;378;48.844;9.156;2023-02-01T01:59:46;1.52;;;1.38;;
789;SDS011;378;48.844;9.156;2023-02-01T02:02:16;2.43;;;1.13;;
789;SDS011;378;48.844;9.156;2023-02-01T02:04:43;2.35;;;1.20;;
789;SDS011;378;48.844;9.156;2023-02-01T02:07:11;1.92;;;1.50;;
789;SDS011;378;48.844;9.156;2023-02-01T02:09:40;1.40;;;1.30;;
789;SDS011;378;48.844;9.156;2023-02-01T02:12:09;1.80;;;1.50;;
789;SDS011;378;48.844;9.156;2023-02-01T02:14:36;1.80;;;1.45;;
789;SDS011;378;48.844;9.156;2023-02-01T02:17:07;2.08;;;1.30;;
789;SDS011;378;48.844;9.156;2023-02-01T02:22:52;3.08;;;1.30;;
789;SDS011;378;48.844;9.156;2023-02-01T02:25:49;1.60;;;1.10;;
789;SDS011;378;48.844;9.156;2023-02-01T02:28:44;1.33;;;1.23;;
789;SDS011;378;48.844;9.156;2023-02-01T02:31:37;2.05;;;1.50;;
789;SDS011;378;48.844;9.156;2023-02-01T02:34:16;1.58;;;1.45;;
789;SDS011;378;48.844;9.156;2023-02-01T02:36:53;3.65;;;1.73;;
789;SDS011;378;48.844;9.156;2023-02-01T02:39:29;1.73;;;1.48;;
789;SDS011;378;48.844;9.156;2023-02-01T02:42:07;1.63;;;1.27;;
789;SDS011;378;48.844;9.156;2023-02-01T02:44:57;2.08;;;1.48;;
789;SDS011;378;48.844;9.156;2023-02-01T02:47:50;2.53;;;1.80;;
789;SDS011;378;48.844;9.156;2023-02-01T02:50:24;1.40;;;1.30;;
789;SDS011;378;48.844;9.156;2023-02-01T02:53:13;2.08;;;1.45;;
789;SDS011;378;48.844;9.156;2023-02-01T02:56:01;2.22;;;1.80;;
789;SDS011;378;48.844;9.156;2023-02-01T02:58:49;2.15;;;1.48;;
789;SDS011;378;48.844;9.156;2023-02-01T03:01:35;2.25;;;1.60;;
789;SDS011;378;48.844;9.156;2023-02-01T03:04:21;3.38;;;1.90;;
789;SDS011;378;48.844;9.156;2023-02-01T03:06:49;2.88;;;1.73;;
789;SDS011;378;48.844;9.156;2023-02-01T03:09:19;1.83;;;1.60;;
789;SDS011;378;48.844;9.156;2023-02-01T03:11:49;2.50;;;1.70;;
789;SDS011;378;48.844;9.156;2023-02-01T03:14:39;2.42;;;1.70;;
789;SDS011;378;48.844;9.156;2023-02-01T03:17:10;2.47;;;1.60;;
789;SDS011;378;48.844;9.156;2023-02-01T03:19:41;3.85;;;1.70;;
789;SDS011;378;48.844;9.156;2023-02-01T03:22:15;4.13;;;1.98;;
789;SDS011;378;48.844;9.156;2023-02-01T03:24:46;3.45;;;1.73;;
789;SDS011;378;48.844;9.156;2023-02-01T03:27:18;2.85;;;1.80;;
789;SDS011;378;48.844;9.156;2023-02-01T03:29:51;2.97;;;1.90;;
789;SDS011;378;48.844;9.156;2023-02-01T03:32:22;2.85;;;1.90;;
789;SDS011;378;48.844;9.156;2023-02-01T03:34:49;3.75;;;1.90;;
789;SDS011;378;48.844;9.156;2023-02-01T03:37:21;3.55;;;1.85;;
789;SDS011;378;48.844;9.156;2023-02-01T03:39:52;5.25;;;1.80;;
789;SDS011;378;48.844;9.156;2023-02-01T03:42:24;3.40;;;1.50;;
789;SDS011;378;48.844;9.156;2023-02-01T03:44:57;1.98;;;1.42;;
789;SDS011;378;48.844;9.156;2023-02-01T03:47:30;3.17;;;1.50;;
789;SDS011;378;48.844;9.156;2023-02-01T03:50:02;3.17;;;1.63;;
789;SDS011;378;48.844;9.156;2023-02-01T03:52:33;2.85;;;1.42;;
789;SDS011;378;48.844;9.156;2023-02-01T03:55:04;3.30;;;1.77;;
789;SDS011;378;48.844;9.156;2023-02-01T03:57:33;2.67;;;1.80;;
789;SDS011;378;48.844;9.156;2023-02-01T04:00:04;2.35;;;1.65;;
789;SDS011;378;48.844;9.156;2023-02-01T04:02:34;2.33;;;1.50;;
789;SDS011;378;48.844;9.156;2023-02-01T04:05:00;2.00;;;1.58;;
789;SDS011;378;48.844;9.156;2023-02-01T04:07:27;2.45;;;1.70;;
789;SDS011;378;48.844;9.156;2023-02-01T04:09:55;1.98;;;1.52;;
789;SDS011;378;48.844;9.156;2023-02-01T04:12:22;1.77;;;1.50;;
789;SDS011;378;48.844;9.156;2023-02-01T04:14:49;1.60;;;1.50;;
789;SDS011;378;48.844;9.156;2023-02-01T04:17:16;2.20;;;1.60;;
789;SDS011;378;48.844;9.156;2023-02-01T04:19:43;6.03;;;2.10;;
789;SDS011;378;48.844;9.156;2023-02-01T04:22:10;2.22;;;1.60;;
789;SDS011;378;48.844;9.156;2023-02-01T04:24:37;3.70;;;1.95;;
789;SDS011;378;48.844;9.156;2023-02-01T04:27:05;2.95;;;1.75;;
789;SDS011;378;48.844;9.156;2023-02-01T04:29:32;4.80;;;2.10;;
789;SDS011;378;48.844;9.156;2023-02-01T04:31:59;2.80;;;1.70;;
789;SDS011;378;48.844;9.156;2023-02-01T04:34:26;2.17;;;1.80;;
789;SDS011;378;48.844;9.156;2023-02-01T04:36:52;3.03;;;1.70;;
789;SDS011;378;48.844;9.156;2023-02-01T04:39:19;2.90;;;1.90;;
789;SDS011;378;48.844;9.156;2023-02-01T04:41:46;1.55;;;1.45;;
789;SDS011;378;48.844;9.156;2023-02-01T04:44:15;3.70;;;1.57;;
789;SDS011;378;48.844;9.156;2023-02-01T04:46:43;2.70;;;1.60;;
789;SDS011;378;48.844;9.156;2023-02-01T04:49:11;3.88;;;1.70;;
789;SDS011;378;48.844;9.156;2023-02-01T04:51:39;3.58;;;1.77;;
789;SDS011;378;48.844;9.156;2023-02-01T04:54:06;2.45;;;1.45;;
789;SDS011;378;48.844;9.156;2023-02-01T04:56:33;4.97;;;1.80;;
789;SDS011;378;48.844;9.156;2023-02-01T04:59:00;2.45;;;1.77;;
789;SDS011;378;48.844;9.156;2023-02-01T05:01:29;3.45;;;1.55;;
789;SDS011;378;48.844;9.156;2023-02-01T05:03:56;2.22;;;1.73;;
789;SDS011;378;48.844;9.156;2023-02-01T05:06:23;4.43;;;1.90;;
789;SDS011;378;48.844;9.156;2023-02-01T05:08:50;3.50;;;1.90;;
789;SDS011;378;48.844;9.156;2023-02-01T05:11:17;4.03;;;1.98;;
789;SDS011;378;48.844;9.156;2023-02-01T05:14:01;2.30;;;1.60;;
789;SDS011;378;48.844;9.156;2023-02-01T05:16:29;2.55;;;1.88;;
789;SDS011;378;48.844;9.156;2023-02-01T05:18:56;4.20;;;1.70;;
789;SDS011;378;48.844;9.156;2023-02-01T05:21:23;3.25;;;1.95;;
789;SDS011;378;48.844;9.156;2023-02-01T05:23:51;2.70;;;1.75;;
789;SDS011;378;48.844;9.156;2023-02-01T05:26:37;3.85;;;1.83;;
789;SDS011;378;48.844;9.156;2023-02-01T05:29:05;2.00;;;1.80;;
789;SDS011;378;48.844;9.156;2023-02-01T05:31:34;2.65;;;1.80;;
789;SDS011;378;48.844;9.156;2023-02-01T05:34:01;3.40;;;1.60;;
789;SDS011;378;48.844;9.156;2023-02-01T05:36:28;2.38;;;1.75;;
789;SDS011;378;48.844;9.156;2023-02-01T05:38:55;4.30;;;2.30;;
789;SDS011;378;48.844;9.156;2023-02-01T05:41:22;4.07;;;1.67;;
789;SDS011;378;48.844;9.156;2023-02-01T05:43:49;3.00;;;1.98;;
789;SDS011;378;48.844;9.156;2023-02-01T05:46:16;3.55;;;1.92;;
789;SDS011;378;48.844;9.156;2023-02-01T05:48:44;3.28;;;1.67;;
789;SDS011;378;48.844;9.156;2023-02-01T05:51:11;2.65;;;1.85;;
789;SDS011;378;48.844;9.156;2023-02-01T05:53:38;2.67;;;1.63;;
789;SDS011;378;48.844;9.156;2023-02-01T05:56:05;3.60;;;1.63;;
789;SDS011;378;48.844;9.156;2023-02-01T05:58:32;4.43;;;1.70;;
789;SDS011;378;48.844;9.156;2023-02-01T06:00:59;2.20;;;1.50;;
789;SDS011;378;48.844;9.156;2023-02-01T06:03:27;2.53;;;1.35;;
789;SDS011;378;48.844;9.156;2023-02-01T06:05:55;3.75;;;1.60;;
789;SDS011;378;48.844;9.156;2023-02-01T06:08:22;2.00;;;1.50;;
789;SDS011;378;48.844;9.156;2023-02-01T06:10:50;3.05;;;1.35;;
789;SDS011;378;48.844;9.156;2023-02-01T06:13:23;3.00;;;1.65;;
789;SDS011;378;48.844;9.156;2023-02-01T06:15:49;2.22;;;1.33;;
789;SDS011;378;48.844;9.156;2023-02-01T06:18:17;4.43;;;1.38;;
789;SDS011;378;48.844;9.156;2023-02-01T06:20:43;3.67;;;1.65;;
789;SDS011;378;48.844;9.156;2023-02-01T06:23:12;2.72;;;1.70;;
789;SDS011;378;48.844;9.156;2023-02-01T06:25:38;5.72;;;1.60;;
789;SDS011;378;48.844;9.156;2023-02-01T06:28:05;4.82;;;1.80;;
789;SDS011;378;48.844;9.156;2023-02-01T06:30:33;4.15;;;1.70;;
789;SDS011;378;48.844;9.156;2023-02-01T06:33:00;5.68;;;1.90;;
789;SDS011;378;48.844;9.156;2023-02-01T06:35:27;4.18;;;1.73;;
789;SDS011;378;48.844;9.156;2023-02-01T06:37:53;3.13;;;2.25;;
789;SDS011;378;48.844;9.156;2023-02-01T06:40:24;5.65;;;2.00;;
789;SDS011;378;48.844;9.156;2023-02-01T06:42:51;3.92;;;2.00;;
789;SDS011;378;48.844;9.156;2023-02-01T06:45:17;4.15;;;1.85;;
789;SDS011;378;48.844;9.156;2023-02-01T06:47:44;4.03;;;2.10;;
789;SDS011;378;48.844;9.156;2023-02-01T06:50:11;7.07;;;2.50;;
789;SDS011;378;48.844;9.156;2023-02-01T06:52:38;5.63;;;2.30;;
789;SDS011;378;48.844;9.156;2023-02-01T06:55:05;6.28;;;2.70;;
789;SDS011;378;48.844;9.156;2023-02-01T06:57:34;5.55;;;2.50;;
789;SDS011;378;48.844;9.156;2023-02-01T07:00:01;5.75;;;2.58;;
789;SDS011;378;48.844;9.156;2023-02-01T07:02:29;6.70;;;2.90;;
789;SDS011;378;48.844;9.156;2023-02-01T07:04:55;4.72;;;2.15;;
789;SDS011;378;48.844;9.156;2023-02-01T07:07:22;7.75;;;2.78;;
789;SDS011;378;48.844;9.156;2023-02-01T07:09:49;8.98;;;2.55;;
789;SDS011;378;48.844;9.156;2023-02-01T07:12:16;4.55;;;2.30;;
789;SDS011;378;48.844;9.156;2023-02-01T07:14:46;9.73;;;2.58;;
789;SDS011;378;48.844;9.156;2023-02-01T07:17:13;8.50;;;2.60;;
789;SDS011;378;48.844;9.156;2023-02-01T07:19:39;5.25;;;2.22;;
789;SDS011;378;48.844;9.156;2023-02-01T07:22:06;5.50;;;2.58;;
789;SDS011;378;48.844;9.156;2023-02-01T07:24:33;8.82;;;2.33;;
789;SDS011;378;48.844;9.156;2023-02-01T07:27:00;12.90;;;2.33;;
789;SDS011;378;48.844;9.156;2023-02-01T07:29:27;8.05;;;2.53;;
789;SDS011;378;48.844;9.156;2023-02-01T07:31:55;6.60;;;2.60;;
789;SDS011;378;48.844;9.156;2023-02-01T07:34:22;9.55;;;2.92;;
789;SDS011;378;48.844;9.156;2023-02-01T07:36:49;9.32;;;2.90;;
789;SDS011;378;48.844;9.156;2023-02-01T07:39:15;9.05;;;2.97;;
789;SDS011;378;48.844;9.156;2023-02-01T07:41:42;6.25;;;2.53;;
789;SDS011;378;48.844;9.156;2023-02-01T07:44:09;10.80;;;2.78;;
789;SDS011;378;48.844;9.156;2023-02-01T07:46:36;11.57;;;2.95;;
789;SDS011;378;48.844;9.156;2023-02-01T07:49:06;5.90;;;3.03;;
789;SDS011;378;48.844;9.156;2023-02-01T07:51:33;13.45;;;2.78;;
789;SDS011;378;48.844;9.156;2023-02-01T07:54:00;7.35;;;2.72;;
789;SDS011;378;48.844;9.156;2023-02-01T07:56:26;9.80;;;3.10;;
789;SDS011;378;48.844;9.156;2023-02-01T07:58:53;9.98;;;3.20;;
789;SDS011;378;48.844;9.156;2023-02-01T08:01:21;8.10;;;3.35;;
789;SDS011;378;48.844;9.156;2023-02-01T08:03:50;11.18;;;2.65;;
789;SDS011;378;48.844;9.156;2023-02-01T08:06:18;10.90;;;3.10;;
789;SDS011;378;48.844;9.156;2023-02-01T08:08:46;8.23;;;2.97;;
789;SDS011;378;48.844;9.156;2023-02-01T08:11:13;11.15;;;3.35;;
789;SDS011;378;48.844;9.156;2023-02-01T08:13:40;9.48;;;2.85;;
789;SDS011;378;48.844;9.156;2023-02-01T08:16:09;9.25;;;3.20;;
789;SDS011;378;48.844;9.156;2023-02-01T08:18:37;15.20;;;2.85;;
789;SDS011;378;48.844;9.156;2023-02-01T08:21:04;10.68;;;3.20;;
789;SDS011;378;48.844;9.156;2023-02-01T08:23:34;9.38;;;2.60;;
789;SDS011;378;48.844;9.156;2023-02-01T08:26:05;14.88;;;2.88;;
789;SDS011;378;48.844;9.156;2023-02-01T08:28:36;15.15;;;3.25;;
789;SDS011;378;48.844;9.156;2023-02-01T08:31:04;9.93;;;2.47;;
789;SDS011;378;48.844;9.156;2023-02-01T08:33:32;8.07;;;2.60;;
789;SDS011;378;48.844;9.156;2023-02-01T08:36:00;5.25;;;2.03;;
789;SDS011;378;48.844;9.156;2023-02-01T08:38:28;16.60;;;3.13;;
789;SDS011;378;48.844;9.156;2023-02-01T08:40:56;6.28;;;2.50;;
789;SDS011;378;48.844;9.156;2023-02-01T08:43:23;11.60;;;2.42;;
789;SDS011;378;48.844;9.156;2023-02-01T08:45:50;10.65;;;2.80;;
789;SDS011;378;48.844;9.156;2023-02-01T08:48:20;8.93;;;2.42;;
789;SDS011;378;48.844;9.156;2023-02-01T08:50:47;8.10;;;2.63;;
789;SDS011;378;48.844;9.156;2023-02-01T08:53:14;6.45;;;2.20;;
789;SDS011;378;48.844;9.156;2023-02-01T08:55:41;5.70;;;2.08;;
789;SDS011;378;48.844;9.156;2023-02-01T08:58:09;8.18;;;2.03;;
789;SDS011;378;48.844;9.156;2023-02-01T09:00:36;12.02;;;2.42;;
789;SDS011;378;48.844;9.156;2023-02-01T09:03:03;7.90;;;1.98;;
789;SDS011;378;48.844;9.156;2023-02-01T09:05:29;12.65;;;2.63;;
789;SDS011;378;48.844;9.156;2023-02-01T09:07:56;15.00;;;3.05;;
789;SDS011;378;48.844;9.156;2023-02-01T09:10:23;14.48;;;2.40;;
789;SDS011;378;48.844;9.156;2023-02-01T09:12:51;6.93;;;2.20;;
789;SDS011;378;48.844;9.156;2023-02-01T09:15:19;9.25;;;2.03;;
789;SDS011;378;48.844;9.156;2023-02-01T09:17:46;6.55;;;2.13;;
789;SDS011;378;48.844;9.156;2023-02-01T09:20:14;6.68;;;2.22;;
789;SDS011;378;48.844;9.156;2023-02-01T09:22:41;13.20;;;3.08;;
789;SDS011;378;48.844;9.156;2023-02-01T09:25:08;11.73;;;2.85;;
789;SDS011;378;48.844;9.156;2023-02-01T09:27:35;7.65;;;2.40;;
789;SDS011;378;48.844;9.156;2023-02-01T09:30:02;14.00;;;2.33;;
789;SDS011;378;48.844;9.156;2023-02-01T09:32:31;14.38;;;2.55;;
789;SDS011;378;48.844;9.156;2023-02-01T09:34:57;9.48;;;2.20;;
789;SDS011;378;48.844;9.156;2023-02-01T09:37:24;10.88;;;2.22;;
789;SDS011;378;48.844;9.156;2023-02-01T09:39:52;12.02;;;2.20;;
789;SDS011;378;48.844;9.156;2023-02-01T09:42:26;13.35;;;2.78;;
789;SDS011;378;48.844;9.156;2023-02-01T09:45:27;12.85;;;3.08;;
789;SDS011;378;48.844;9.156;2023-02-01T09:48:02;10.45;;;2.47;;
789;SDS011;378;48.844;9.156;2023-02-01T09:50:37;9.25;;;2.50;;
789;SDS011;378;48.844;9.156;2023-02-01T09:53:10;18.08;;;2.70;;
789;SDS011;378;48.844;9.156;2023-02-01T09:55:42;13.18;;;2.20;;
789;SDS011;378;48.844;9.156;2023-02-01T09:58:13;15.75;;;2.50;;
789;SDS011;378;48.844;9.156;2023-02-01T10:00:48;12.18;;;2.10;;
789;SDS011;378;48.844;9.156;2023-02-01T10:03:19;17.55;;;2.50;;
789;SDS011;378;48.844;9.156;2023-02-01T10:06:01;12.68;;;2.15;;
789;SDS011;378;48.844;9.156;2023-02-01T10:08:51;12.00;;;2.38;;
789;SDS011;378;48.844;9.156;2023-02-01T10:11:32;9.43;;;2.28;;
789;SDS011;378;48.844;9.156;2023-02-01T10:14:20;9.60;;;2.13;;
789;SDS011;378;48.844;9.156;2023-02-01T10:17:13;9.65;;;2.03;;
789;SDS011;378;48.844;9.156;2023-02-01T10:19:54;13.65;;;2.10;;
789;SDS011;378;48.844;9.156;2023-02-01T10:22:32;18.45;;;2.60;;
789;SDS011;378;48.844;9.156;2023-02-01T10:25:07;18.88;;;2.90;;
789;SDS011;378;48.844;9.156;2023-02-01T10:27:39;14.77;;;1.98;;
789;SDS011;378;48.844;9.156;2023-02-01T10:30:13;10.57;;;2.65;;
789;SDS011;378;48.844;9.156;2023-02-01T10:32:44;13.27;;;2.58;;
789;SDS011;378;48.844;9.156;2023-02-01T10:35:14;11.35;;;1.85;;
789;SDS011;378;48.844;9.156;2023-02-01T10:37:43;19.52;;;2.85;;
789;SDS011;378;48.844;9.156;2023-02-01T10:40:18;11.07;;;2.22;;
789;SDS011;378;48.844;9.156;2023-02-01T10:42:47;13.82;;;2.40;;
789;SDS011;378;48.844;9.156;2023-02-01T10:45:16;13.20;;;2.67;;
789;SDS011;378;48.844;9.156;2023-02-01T10:47:45;15.82;;;2.65;;
789;SDS011;378;48.844;9.156;2023-02-01T10:50:16;13.13;;;3.05;;
789;SDS011;378;48.844;9.156;2023-02-01T10:52:52;14.82;;;2.20;;
789;SDS011;378;48.844;9.156;2023-02-01T10:55:27;14.60;;;2.28;;
789;SDS011;378;48.844;9.156;2023-02-01T10:58:04;11.65;;;2.28;;
789;SDS011;378;48.844;9.156;2023-02-01T11:00:38;13.27;;;2.70;;
789;SDS011;378;48.844;9.156;2023-02-01T11:03:30;16.90;;;2.42;;
789;SDS011;378;48.844;9.156;2023-02-01T11:06:01;12.43;;;2.30;;
789;SDS011;378;48.844;9.156;2023-02-01T11:08:41;11.90;;;2.33;;
789;SDS011;378;48.844;9.156;2023-02-01T11:11:09;15.98;;;2.53;;
789;SDS011;378;48.844;9.156;2023-02-01T11:13:37;15.23;;;2.22;;
789;SDS011;378;48.844;9.156;2023-02-01T11:16:05;11.75;;;2.60;;
789;SDS011;378;48.844;9.156;2023-02-01T11:18:36;12.38;;;2.35;;
789;SDS011;378;48.844;9.156;2023-02-01T11:21:05;16.00;;;2.47;;
789;SDS011;378;48.844;9.156;2023-02-01T11:23:33;11.10;;;2.10;;
789;SDS011;378;48.844;9.156;2023-02-01T11:26:07;10.75;;;2.45;;
789;SDS011;378;48.844;9.156;2023-02-01T11:28:38;11.50;;;2.78;;
789;SDS011;378;48.844;9.156;2023-02-01T11:31:07;9.60;;;2.00;;
789;SDS011;378;48.844;9.156;2023-02-01T11:33:38;12.18;;;2.13;;
789;SDS011;378;48.844;9.156;2023-02-01T11:36:15;11.95;;;2.75;;
789;SDS011;378;48.844;9.156;2023-02-01T11:38:45;17.15;;;2.20;;
789;SDS011;378;48.844;9.156;2023-02-01T11:41:20;9.95;;;1.85;;
789;SDS011;378;48.844;9.156;2023-02-01T11:43:52;7.65;;;2.38;;
789;SDS011;378;48.844;9.156;2023-02-01T11:46:22;10.05;;;2.33;;
789;SDS011;378;48.844;9.156;2023-02-01T11:48:53;14.20;;;2.63;;
789;SDS011;378;48.844;9.156;2023-02-01T11:51:27;4.55;;;1.48;;
789;SDS011;378;48.844;9.156;2023-02-01T11:54:11;11.68;;;2.00;;
789;SDS011;378;48.844;9.156;2023-02-01T11:56:55;9.35;;;2.30;;
789;SDS011;378;48.844;9.156;2023-02-01T11:59:36;14.25;;;2.42;;
789;SDS011;378;48.844;9.156;2023-02-01T12:02:19;13.23;;;2.38;;
789;SDS011;378;48.844;9.156;2023-02-01T12:05:08;14.52;;;2.67;;
789;SDS011;378;48.844;9.156;2023-02-01T12:07:58;15.95;;;2.90;;
789;SDS011;378;48.844;9.156;2023-02-01T12:10:45;5.75;;;1.95;;
789;SDS011;378;48.844;9.156;2023-02-01T12:13:24;16.48;;;2.58;;
789;SDS011;378;48.844;9.156;2023-02-01T12:16:02;8.30;;;1.60;;
789;SDS011;378;48.844;9.156;2023-02-01T12:18:54;11.18;;;1.80;;
789;SDS011;378;48.844;9.156;2023-02-01T12:21:57;15.10;;;2.08;;
789;SDS011;378;48.844;9.156;2023-02-01T12:24:41;13.52;;;1.95;;
789;SDS011;378;48.844;9.156;2023-02-01T12:27:40;14.15;;;2.78;;
789;SDS011;378;48.844;9.156;2023-02-01T12:30:39;15.45;;;1.95;;
789;SDS011;378;48.844;9.156;2023-02-01T12:33:16;9.07;;;1.73;;
789;SDS011;378;48.844;9.156;2023-02-01T12:35:56;11.82;;;2.17;;
789;SDS011;378;48.844;9.156;2023-02-01T12:38:37;10.15;;;1.83;;
789;SDS011;378;48.844;9.156;2023-02-01T12:41:17;11.25;;;2.20;;
789;SDS011;378;48.844;9.156;2023-02-01T12:43:56;11.95;;;2.28;;
789;SDS011;378;48.844;9.156;2023-02-01T12:46:26;8.23;;;2.10;;
789;SDS011;378;48.844;9.156;2023-02-01T12:48:59;13.93;;;2.13;;
789;SDS011;378;48.844;9.156;2023-02-01T12:51:28;11.30;;;2.55;;
789;SDS011;378;48.844;9.156;2023-02-01T12:54:00;19.73;;;2.10;;
789;SDS011;378;48.844;9.156;2023-02-01T12:56:32;15.38;;;2.20;;
789;SDS011;378;48.844;9.156;2023-02-01T12:59:04;7.22;;;1.52;;
789;SDS011;378;48.844;9.156;2023-02-01T13:01:40;11.35;;;2.10;;
789;SDS011;378;48.844;9.156;2023-02-01T13:04:16;9.55;;;2.30;;
789;SDS011;378;48.844;9.156;2023-02-01T13:06:47;14.05;;;2.10;;
789;SDS011;378;48.844;9.156;2023-02-01T13:09:20;8.30;;;1.70;;
789;SDS011;378;48.844;9.156;2023-02-01T13:11:53;7.85;;;2.00;;
789;SDS011;378;48.844;9.156;2023-02-01T13:14:25;9.88;;;1.83;;
789;SDS011;378;48.844;9.156;2023-02-01T13:16:59;12.85;;;2.28;;
789;SDS011;378;48.844;9.156;2023-02-01T13:19:29;12.90;;;2.45;;
789;SDS011;378;48.844;9.156;2023-02-01T13:22:04;9.43;;;2.35;;
789;SDS011;378;48.844;9.156;2023-02-01T13:24:37;13.32;;;3.03;;
789;SDS011;378;48.844;9.156;2023-02-01T13:27:11;13.10;;;3.17;;
789;SDS011;378;48.844;9.156;2023-02-01T13:29:39;13.02;;;2.50;;
789;SDS011;378;48.844;9.156;2023-02-01T13:32:24;10.43;;;2.92;;
789;SDS011;378;48.844;9.156;2023-02-01T13:35:24;10.77;;;2.38;;
789;SDS011;378;48.844;9.156;2023-02-01T13:38:24;11.85;;;2.63;;
789;SDS011;378;48.844;9.156;2023-02-01T13:41:07;10.40;;;2.30;;
789;SDS011;378;48.844;9.156;2023-02-01T13:43:48;11.05;;;2.90;;
789;SDS011;378;48.844;9.156;2023-02-01T13:46:18;11.43;;;3.38;;
789;SDS011;378;48.844;9.156;2023-02-01T13:48:46;10.27;;;4.05;;
789;SDS011;378;48.844;9.156;2023-02-01T13:51:15;7.90;;;2.83;;
789;SDS011;378;48.844;9.156;2023-02-01T13:53:54;10.15;;;2.17;;
789;SDS011;378;48.844;9.156;2023-02-01T13:56:22;10.23;;;1.70;;
789;SDS011;378;48.844;9.156;2023-02-01T13:58:52;7.97;;;2.38;;
789;SDS011;378;48.844;9.156;2023-02-01T14:01:33;9.82;;;2.17;;
789;SDS011;378;48.844;9.156;2023-02-01T14:04:01;6.65;;;1.92;;
789;SDS011;378;48.844;9.156;2023-02-01T14:06:35;6.28;;;2.00;;
789;SDS011;378;48.844;9.156;2023-02-01T14:11:58;11.50;;;2.30;;
789;SDS011;378;48.844;9.156;2023-02-01T14:15:18;11.73;;;2.17;;
789;SDS011;378;48.844;9.156;2023-02-01T14:17:48;13.05;;;2.08;;
789;SDS011;378;48.844;9.156;2023-02-01T14:23:20;16.38;;;2.58;;
789;SDS011;378;48.844;9.156;2023-02-01T14:26:01;13.35;;;2.17;;
789;SDS011;378;48.844;9.156;2023-02-01T14:28:34;12.05;;;2.53;;
789;SDS011;378;48.844;9.156;2023-02-01T14:31:14;17.50;;;2.42;;
789;SDS011;378;48.844;9.156;2023-02-01T14:33:45;9.85;;;2.13;;
789;SDS011;378;48.844;9.156;2023-02-01T14:36:12;13.75;;;2.50;;
789;SDS011;378;48.844;9.156;2023-02-01T14:38:47;8.63;;;2.38;;
789;SDS011;378;48.844;9.156;2023-02-01T14:41:28;12.65;;;2.42;;
789;SDS011;378;48.844;9.156;2023-02-01T14:44:14;12.52;;;2.38;;
789;SDS011;378;48.844;9.156;2023-02-01T14:53:01;9.40;;;2.58;;
789;SDS011;378;48.844;9.156;2023-02-01T14:55:37;14.60;;;2.47;;
789;SDS011;378;48.844;9.156;2023-02-01T14:58:11;11.20;;;2.15;;
789;SDS011;378;48.844;9.156;2023-02-01T15:00:46;10.55;;;2.03;;
789;SDS011;378;48.844;9.156;2023-02-01T15:03:21;12.35;;;2.60;;
789;SDS011;378;48.844;9.156;2023-02-01T15:05:59;14.85;;;2.03;;
789;SDS011;378;48.844;9.156;2023-02-01T15:08:29;15.15;;;2.35;;
789;SDS011;378;48.844;9.156;2023-02-01T15:10:59;11.25;;;3.42;;
789;SDS011;378;48.844;9.156;2023-02-01T15:13:29;17.75;;;2.53;;
789;SDS011;378;48.844;9.156;2023-02-01T15:16:00;17.30;;;2.40;;
789;SDS011;378;48.844;9.156;2023-02-01T15:18:31;13.60;;;2.03;;
789;SDS011;378;48.844;9.156;2023-02-01T15:20:58;15.68;;;2.35;;
789;SDS011;378;48.844;9.156;2023-02-01T15:23:26;10.48;;;2.33;;
789;SDS011;378;48.844;9.156;2023-02-01T15:25:55;13.63;;;2.10;;
789;SDS011;378;48.844;9.156;2023-02-01T15:28:22;13.45;;;1.98;;
789;SDS011;378;48.844;9.156;2023-02-01T15:30:57;10.93;;;2.10;;
789;SDS011;378;48.844;9.156;2023-02-01T15:33:26;14.32;;;2.30;;
789;SDS011;378;48.844;9.156;2023-02-01T15:35:55;10.00;;;2.25;;
789;SDS011;378;48.844;9.156;2023-02-01T15:38:36;9.43;;;1.92;;
789;SDS011;378;48.844;9.156;2023-02-01T15:41:05;10.23;;;2.42;;
789;SDS011;378;48.844;9.156;2023-02-01T15:43:35;11.38;;;2.60;;
789;SDS011;378;48.844;9.156;2023-02-01T15:46:06;14.60;;;2.47;;
789;SDS011;378;48.844;9.156;2023-02-01T15:48:36;17.10;;;2.60;;
789;SDS011;378;48.844;9.156;2023-02-01T15:51:06;13.50;;;2.47;;
789;SDS011;378;48.844;9.156;2023-02-01T15:53:42;10.98;;;2.20;;
789;SDS011;378;48.844;9.156;2023-02-01T15:56:11;20.73;;;2.20;;
789;SDS011;378;48.844;9.156;2023-02-01T15:58:40;16.90;;;2.55;;
789;SDS011;378;48.844;9.156;2023-02-01T16:01:10;11.40;;;2.45;;
789;SDS011;378;48.844;9.156;2023-02-01T16:03:39;13.88;;;2.35;;
789;SDS011;378;48.844;9.156;2023-02-01T16:06:08;10.25;;;2.85;;
789;SDS011;378;48.844;9.156;2023-02-01T16:08:37;13.88;;;2.47;;
789;SDS011;378;48.844;9.156;2023-02-01T16:11:21;10.90;;;2.42;;
789;SDS011;378;48.844;9.156;2023-02-01T16:13:50;13.00;;;2.17;;
789;SDS011;378;48.844;9.156;2023-02-01T16:16:17;8.02;;;2.17;;
789;SDS011;378;48.844;9.156;2023-02-01T16:18:44;7.90;;;1.90;;
789;SDS011;378;48.844;9.156;2023-02-01T16:21:11;12.73;;;2.55;;
789;SDS011;378;48.844;9.156;2023-02-01T16:23:38;7.30;;;2.03;;
789;SDS011;378;48.844;9.156;2023-02-01T16:26:04;10.55;;;2.30;;